createdAt,value
2017-11-03T00:01:59.186Z,18.25
2017-11-03T00:04:32.950Z,18.80
2017-11-03T00:07:06.645Z,22.00
2017-11-03T00:09:40.233Z,14.93
2017-11-03T00:12:13.812Z,13.88
2017-11-03T00:14:47.418Z,18.40
2017-11-03T00:17:21.089Z,16.42
2017-11-03T00:19:54.715Z,21.33
2017-11-03T00:22:28.293Z,18.17
2017-11-03T00:25:01.858Z,19.75
2017-11-03T00:27:35.428Z,15.98
2017-11-03T00:30:09.041Z,21.65
2017-11-03T00:32:42.613Z,13.15
2017-11-03T00:35:16.213Z,12.80
2017-11-03T00:37:49.718Z,15.65
2017-11-03T00:40:23.329Z,14.15
2017-11-03T00:42:57.721Z,19.90
2017-11-03T00:45:31.354Z,12.07
2017-11-03T00:48:05.855Z,21.98
2017-11-03T00:50:39.408Z,16.77
2017-11-03T00:53:12.954Z,15.20
2017-11-03T00:55:46.542Z,12.00
2017-11-03T00:58:20.068Z,18.60
2017-11-03T01:00:53.690Z,21.90
2017-11-03T01:03:27.401Z,25.90
2017-11-03T01:06:01.022Z,18.27
2017-11-03T01:08:34.806Z,21.58
2017-11-03T01:11:08.455Z,19.65
2017-11-03T01:13:42.080Z,26.12
2017-11-03T01:16:15.691Z,22.65
2017-11-03T01:18:49.278Z,25.48
2017-11-03T01:21:22.812Z,17.35
2017-11-03T01:23:56.369Z,20.42
2017-11-03T01:26:29.950Z,16.85
2017-11-03T01:29:04.380Z,22.25
2017-11-03T01:31:38.185Z,16.12
2017-11-03T01:34:11.888Z,17.25
2017-11-03T01:36:45.434Z,22.52
2017-11-03T01:39:18.985Z,14.90
2017-11-03T01:41:53.346Z,16.67
2017-11-03T01:44:27.036Z,16.67
2017-11-03T01:47:00.617Z,23.73
2017-11-03T01:49:34.231Z,23.67
2017-11-03T01:52:07.857Z,25.00
2017-11-03T01:54:41.407Z,18.95
2017-11-03T01:57:14.911Z,22.02
2017-11-03T01:59:48.526Z,20.95
2017-11-03T02:02:22.072Z,17.98
2017-11-03T02:04:55.721Z,24.60
2017-11-03T02:07:29.429Z,21.58
2017-11-03T02:10:02.990Z,20.12
2017-11-03T02:12:36.645Z,21.33
2017-11-03T02:15:10.204Z,16.48
2017-11-03T02:17:43.842Z,21.00
2017-11-03T02:20:17.633Z,21.65
2017-11-03T02:22:51.201Z,21.48
2017-11-03T02:25:24.711Z,21.23
2017-11-03T02:27:58.381Z,19.05
2017-11-03T02:30:32.147Z,32.85
2017-11-03T02:33:05.789Z,29.40
2017-11-03T02:35:39.437Z,23.50
2017-11-03T02:38:13.034Z,25.27
2017-11-03T02:40:46.569Z,22.13
2017-11-03T02:43:20.173Z,22.45
2017-11-03T02:45:53.732Z,21.17
2017-11-03T02:48:27.349Z,20.70
2017-11-03T02:51:00.861Z,25.08
2017-11-03T02:53:34.486Z,26.73
2017-11-03T02:56:08.113Z,24.00
2017-11-03T02:58:41.746Z,31.70
2017-11-03T03:01:15.277Z,26.98
2017-11-03T03:03:48.838Z,21.75
2017-11-03T03:06:22.507Z,25.12
2017-11-03T03:08:56.974Z,32.05
2017-11-03T03:11:31.376Z,29.52
2017-11-03T03:14:05.946Z,22.20
2017-11-03T03:16:39.577Z,29.10
2017-11-03T03:19:13.923Z,30.90
2017-11-03T03:21:47.569Z,26.02
2017-11-03T03:24:21.060Z,40.92
2017-11-03T03:26:55.338Z,27.00
2017-11-03T03:29:28.962Z,26.92
2017-11-03T03:32:02.478Z,28.67
2017-11-03T03:34:36.021Z,29.83
2017-11-03T03:37:09.781Z,24.98
2017-11-03T03:39:44.075Z,27.60
2017-11-03T03:42:18.482Z,31.25
2017-11-03T03:44:52.308Z,32.90
2017-11-03T03:47:25.831Z,33.55
2017-11-03T03:49:59.408Z,26.15
2017-11-03T03:52:32.965Z,24.92
2017-11-03T03:55:07.302Z,25.35
2017-11-03T03:57:40.905Z,34.88
2017-11-03T04:00:15.229Z,33.13
2017-11-03T04:02:48.758Z,30.48
2017-11-03T04:05:22.354Z,28.08
2017-11-03T04:07:56.047Z,33.78
2017-11-03T04:10:29.545Z,29.65
2017-11-03T04:13:03.112Z,36.03
2017-11-03T04:15:36.700Z,36.90
2017-11-03T04:18:10.332Z,42.85
2017-11-03T04:20:43.958Z,30.52
2017-11-03T04:23:17.726Z,28.92
2017-11-03T04:25:51.369Z,29.75
2017-11-03T04:28:25.045Z,27.58
2017-11-03T04:30:58.697Z,30.65
2017-11-03T04:33:32.347Z,30.52
2017-11-03T04:36:05.926Z,37.40
2017-11-03T04:38:39.408Z,38.67
2017-11-03T04:41:13.002Z,34.40
2017-11-03T04:43:46.604Z,47.83
2017-11-03T04:46:20.257Z,41.30
2017-11-03T04:48:53.867Z,49.40
2017-11-03T04:51:27.429Z,42.25
2017-11-03T04:54:00.945Z,41.75
2017-11-03T04:56:35.449Z,50.00
2017-11-03T04:59:09.806Z,36.95
2017-11-03T05:01:43.518Z,36.22
2017-11-03T05:04:17.018Z,39.92
2017-11-03T05:06:50.619Z,28.92
2017-11-03T05:09:24.180Z,36.28
2017-11-03T05:11:57.714Z,40.33
2017-11-03T05:14:31.254Z,34.47
2017-11-03T05:17:04.832Z,28.55
2017-11-03T05:19:38.370Z,34.00
2017-11-03T05:22:11.977Z,32.67
2017-11-03T05:24:45.726Z,38.03
2017-11-03T05:27:19.321Z,39.55
2017-11-03T05:29:52.881Z,39.33
2017-11-03T05:32:26.454Z,37.67
2017-11-03T05:34:59.998Z,43.13
2017-11-03T05:37:33.758Z,36.35
2017-11-03T05:40:07.521Z,34.75
2017-11-03T05:42:41.246Z,39.15
2017-11-03T05:45:14.805Z,32.97
2017-11-03T05:47:48.327Z,36.58
2017-11-03T05:50:21.894Z,29.55
2017-11-03T05:52:55.618Z,32.80
2017-11-03T05:55:29.122Z,33.47
2017-11-03T05:58:02.705Z,28.58
2017-11-03T06:00:36.281Z,29.77
2017-11-03T06:03:09.910Z,36.42
2017-11-03T06:05:43.486Z,30.52
2017-11-03T06:08:17.069Z,40.58
2017-11-03T06:10:50.607Z,27.60
2017-11-03T06:13:24.908Z,23.23
2017-11-03T06:15:58.508Z,27.92
2017-11-03T06:18:32.073Z,33.83
2017-11-03T06:21:05.637Z,30.83
2017-11-03T06:23:39.220Z,27.35
2017-11-03T06:26:12.769Z,29.02
2017-11-03T06:28:46.473Z,24.15
2017-11-03T06:31:20.923Z,23.90
2017-11-03T06:33:54.719Z,27.48
2017-11-03T06:36:28.262Z,27.00
2017-11-03T06:39:01.866Z,21.20
2017-11-03T06:41:35.548Z,24.45
2017-11-03T06:44:09.905Z,25.40
2017-11-03T06:46:43.424Z,24.12
2017-11-03T06:49:16.977Z,21.12
2017-11-03T06:51:50.550Z,23.73
2017-11-03T06:54:24.293Z,32.92
2017-11-03T06:56:57.851Z,28.15
2017-11-03T06:59:31.359Z,27.62
2017-11-03T07:02:05.673Z,49.03
2017-11-03T07:04:40.308Z,33.53
2017-11-03T07:07:13.897Z,92.10
2017-11-03T07:09:48.232Z,58.47
2017-11-03T07:12:22.536Z,27.85
2017-11-03T07:14:56.398Z,27.25
2017-11-03T07:17:30.145Z,24.85
2017-11-03T07:20:03.707Z,23.52
2017-11-03T07:22:37.460Z,23.23
2017-11-03T07:25:11.085Z,26.08
2017-11-03T07:27:44.650Z,20.23
2017-11-03T07:30:18.276Z,22.65
2017-11-03T07:32:51.834Z,18.67
2017-11-03T07:35:26.177Z,23.00
2017-11-03T07:37:59.838Z,21.00
2017-11-03T07:40:33.474Z,24.50
2017-11-03T07:43:07.203Z,23.23
2017-11-03T07:45:40.805Z,39.47
2017-11-03T07:48:14.386Z,29.30
2017-11-03T07:50:48.734Z,33.42
2017-11-03T07:53:22.331Z,32.67
2017-11-03T07:55:55.889Z,22.90
2017-11-03T07:58:29.495Z,23.48
2017-11-03T08:01:03.029Z,23.35
2017-11-03T08:03:36.595Z,26.15
2017-11-03T08:06:10.139Z,27.05
2017-11-03T08:08:43.696Z,25.75
2017-11-03T08:11:17.339Z,24.45
2017-11-03T08:13:50.821Z,23.62
2017-11-03T08:16:24.501Z,26.05
2017-11-03T08:18:58.337Z,23.65
2017-11-03T08:21:31.893Z,21.65
2017-11-03T08:24:05.526Z,23.87
2017-11-03T08:26:39.123Z,25.45
2017-11-03T08:29:12.909Z,29.67
2017-11-03T08:31:46.466Z,27.20
2017-11-03T08:34:20.013Z,26.95
2017-11-03T08:36:53.623Z,24.02
2017-11-03T08:39:27.427Z,22.98
2017-11-03T08:42:01.062Z,29.02
2017-11-03T08:44:34.702Z,24.83
2017-11-03T08:47:08.220Z,23.62
2017-11-03T08:49:41.753Z,24.25
2017-11-03T08:52:15.362Z,25.85
2017-11-03T08:54:48.915Z,22.35
2017-11-03T08:57:22.518Z,23.60
2017-11-03T08:59:56.117Z,20.70
2017-11-03T09:02:29.646Z,17.73
2017-11-03T09:05:03.201Z,22.00
2017-11-03T09:07:37.545Z,19.37
2017-11-03T09:10:11.064Z,19.40
2017-11-03T09:12:44.653Z,19.35
2017-11-03T09:15:18.345Z,23.20
2017-11-03T09:17:52.065Z,17.15
2017-11-03T09:20:26.371Z,16.77
2017-11-03T09:23:00.292Z,20.00
2017-11-03T09:25:34.049Z,15.95
2017-11-03T09:28:07.590Z,16.85
2017-11-03T09:30:41.171Z,16.70
2017-11-03T09:33:14.779Z,22.00
2017-11-03T09:35:48.477Z,19.58
2017-11-03T09:38:22.073Z,18.48
2017-11-03T09:40:55.611Z,21.10
2017-11-03T09:43:29.183Z,18.23
2017-11-03T09:46:02.769Z,15.40
2017-11-03T09:48:36.272Z,16.55
2017-11-03T09:51:09.780Z,19.17
2017-11-03T09:53:43.505Z,18.42
2017-11-03T09:56:17.100Z,23.60
2017-11-03T09:58:50.717Z,22.73
2017-11-03T10:01:24.301Z,21.45
2017-11-03T10:03:57.870Z,23.83
2017-11-03T10:06:31.418Z,23.15
2017-11-03T10:09:05.075Z,21.77
2017-11-03T10:11:38.677Z,18.50
2017-11-03T10:14:13.018Z,18.75
2017-11-03T10:16:46.697Z,17.15
2017-11-03T10:19:20.250Z,22.75
2017-11-03T10:21:53.806Z,25.52
2017-11-03T10:24:27.445Z,19.87
2017-11-03T10:27:01.000Z,20.23
2017-11-03T10:29:34.617Z,22.67
2017-11-03T10:32:08.203Z,18.92
2017-11-03T10:34:41.802Z,22.00
2017-11-03T10:37:15.317Z,25.33
2017-11-03T10:39:48.965Z,21.17
2017-11-03T10:42:22.485Z,25.88
2017-11-03T10:44:56.104Z,19.27
2017-11-03T10:47:29.707Z,20.70
2017-11-03T10:50:03.278Z,22.60
2017-11-03T10:52:36.936Z,23.75
2017-11-03T10:55:10.653Z,28.85
2017-11-03T10:57:44.403Z,23.40
2017-11-03T11:00:18.069Z,25.77
2017-11-03T11:02:51.793Z,22.60
2017-11-03T11:05:25.409Z,26.98
2017-11-03T11:07:59.009Z,22.50
2017-11-03T11:10:32.621Z,21.37
2017-11-03T11:13:06.221Z,24.05
2017-11-03T11:15:40.021Z,16.40
2017-11-03T11:18:13.546Z,18.00
2017-11-03T11:20:47.190Z,25.27
2017-11-03T11:23:20.735Z,29.33
2017-11-03T11:25:54.327Z,19.00
2017-11-03T11:28:27.913Z,16.77
2017-11-03T11:31:01.525Z,19.20
2017-11-03T11:33:35.138Z,21.48
2017-11-03T11:36:09.465Z,26.05
2017-11-03T11:38:43.130Z,20.75
2017-11-03T11:41:16.712Z,20.65
2017-11-03T11:43:50.233Z,22.02
2017-11-03T11:46:23.782Z,22.65
2017-11-03T11:48:57.339Z,21.42
2017-11-03T11:51:30.993Z,19.23
2017-11-03T11:54:04.534Z,22.73
2017-11-03T11:56:38.134Z,24.00
2017-11-03T11:59:11.723Z,31.65
2017-11-03T12:01:45.373Z,25.25
2017-11-03T12:04:19.181Z,27.83
2017-11-03T12:06:52.753Z,25.65
2017-11-03T12:09:26.339Z,22.30
2017-11-03T12:11:59.980Z,27.58
2017-11-03T12:14:33.582Z,24.20
2017-11-03T12:17:07.174Z,23.77
2017-11-03T12:19:40.741Z,26.17
2017-11-03T12:22:14.790Z,22.05
2017-11-03T12:24:48.493Z,21.85
2017-11-03T12:27:22.064Z,30.75
2017-11-03T12:29:55.775Z,23.60
2017-11-03T12:32:29.281Z,27.13
2017-11-03T12:35:02.836Z,28.30
2017-11-03T12:37:36.366Z,44.35
2017-11-03T12:40:09.898Z,26.55
2017-11-03T12:42:43.525Z,33.42
2017-11-03T12:45:17.189Z,26.10
2017-11-03T12:47:50.787Z,31.52
2017-11-03T12:50:24.336Z,28.75
2017-11-03T12:52:58.086Z,25.42
2017-11-03T12:55:31.846Z,34.10
2017-11-03T12:58:05.503Z,23.23
2017-11-03T13:00:39.073Z,27.08
2017-11-03T13:03:12.672Z,28.30
2017-11-03T13:05:46.195Z,25.92
2017-11-03T13:08:19.818Z,23.20
2017-11-03T13:10:53.570Z,25.65
2017-11-03T13:13:27.311Z,24.65
2017-11-03T13:16:00.883Z,32.75
2017-11-03T13:18:34.509Z,21.70
2017-11-03T13:21:08.286Z,23.52
2017-11-03T13:23:41.913Z,27.37
2017-11-03T13:26:16.515Z,24.95
2017-11-03T13:28:50.341Z,23.70
2017-11-03T13:31:24.845Z,22.92
2017-11-03T13:33:58.632Z,31.37
2017-11-03T13:36:32.245Z,21.25
2017-11-03T13:39:06.645Z,21.80
2017-11-03T13:41:40.296Z,33.67
2017-11-03T13:44:13.898Z,21.90
2017-11-03T13:46:48.205Z,25.17
2017-11-03T13:49:21.885Z,23.52
2017-11-03T13:51:55.502Z,18.95
2017-11-03T13:54:29.208Z,26.52
2017-11-03T13:57:02.729Z,18.15
2017-11-03T13:59:36.362Z,19.75
2017-11-03T14:02:09.902Z,29.23
2017-11-03T14:04:43.659Z,22.15
2017-11-03T14:07:17.401Z,23.52
2017-11-03T14:09:51.741Z,24.52
2017-11-03T14:12:25.344Z,22.80
2017-11-03T14:14:58.966Z,26.92
2017-11-03T14:17:32.516Z,21.37
2017-11-03T14:20:06.037Z,20.08
2017-11-03T14:22:39.626Z,18.17
2017-11-03T14:25:13.233Z,23.12
2017-11-03T14:27:46.817Z,19.48
2017-11-03T14:30:20.451Z,24.75
2017-11-03T14:32:54.068Z,26.23
2017-11-03T14:35:27.661Z,18.73
2017-11-03T14:38:01.221Z,20.35
2017-11-03T14:40:34.850Z,19.83
2017-11-03T14:43:09.148Z,20.52
2017-11-03T14:45:43.466Z,20.70
2017-11-03T14:48:17.982Z,22.75
2017-11-03T14:50:51.865Z,19.67
2017-11-03T14:53:25.625Z,16.80
2017-11-03T14:55:59.233Z,23.17
2017-11-03T14:58:32.791Z,18.85
2017-11-03T15:01:07.154Z,21.83
2017-11-03T15:03:41.734Z,26.52
2017-11-03T15:06:16.081Z,29.73
2017-11-03T15:08:49.826Z,24.05
2017-11-03T15:11:23.434Z,25.75
2017-11-03T15:13:57.065Z,21.90
2017-11-03T15:16:30.614Z,27.27
2017-11-03T15:19:04.202Z,25.42
2017-11-03T15:21:37.918Z,25.77
2017-11-03T15:24:11.491Z,27.33
2017-11-03T15:26:45.079Z,20.12
2017-11-03T15:29:18.647Z,23.52
2017-11-03T15:31:52.186Z,29.35
2017-11-03T15:34:25.778Z,24.37
2017-11-03T15:36:59.506Z,25.48
2017-11-03T15:39:33.084Z,23.10
2017-11-03T15:42:06.693Z,30.73
2017-11-03T15:44:40.231Z,25.30
2017-11-03T15:47:13.898Z,22.70
2017-11-03T15:49:47.546Z,26.55
2017-11-03T15:52:21.169Z,28.33
2017-11-03T15:54:54.802Z,29.90
2017-11-03T15:57:28.433Z,24.92
2017-11-03T16:00:01.971Z,24.77
2017-11-03T16:02:35.558Z,26.83
2017-11-03T16:05:09.330Z,26.00
2017-11-03T16:07:42.951Z,30.73
2017-11-03T16:10:16.580Z,25.70
2017-11-03T16:12:50.938Z,27.40
2017-11-03T16:15:24.617Z,27.92
2017-11-03T16:17:58.222Z,34.10
2017-11-03T16:20:31.801Z,31.23
2017-11-03T16:23:05.425Z,33.28
2017-11-03T16:25:39.115Z,24.85
2017-11-03T16:28:12.677Z,27.60
2017-11-03T16:30:46.229Z,35.30
2017-11-03T16:33:19.790Z,22.80
2017-11-03T16:35:53.381Z,30.45
2017-11-03T16:38:27.077Z,30.12
2017-11-03T16:41:00.637Z,33.50
2017-11-03T16:43:34.370Z,30.40
2017-11-03T16:46:07.957Z,30.75
2017-11-03T16:48:41.606Z,141.27
2017-11-03T16:51:16.150Z,60.47
2017-11-03T16:53:49.877Z,43.65
2017-11-03T16:56:23.601Z,46.95
2017-11-03T16:58:57.182Z,42.62
2017-11-03T17:01:30.858Z,35.75
2017-11-03T17:04:04.430Z,31.77
2017-11-03T17:06:37.969Z,31.92
2017-11-03T17:09:11.649Z,34.58
2017-11-03T17:11:45.242Z,27.80
2017-11-03T17:14:18.882Z,30.60
2017-11-03T17:16:52.498Z,34.53
2017-11-03T17:19:26.056Z,34.13
2017-11-03T17:21:59.553Z,29.70
2017-11-03T17:24:33.183Z,31.85
2017-11-03T17:27:06.740Z,29.90
2017-11-03T17:29:41.136Z,43.83
2017-11-03T17:32:15.494Z,36.20
2017-11-03T17:34:49.080Z,35.47
2017-11-03T17:37:22.686Z,35.40
2017-11-03T17:39:56.338Z,35.55
2017-11-03T17:42:29.911Z,37.70
2017-11-03T17:45:03.484Z,36.78
2017-11-03T17:47:37.222Z,41.55
2017-11-03T17:50:10.833Z,37.15
2017-11-03T17:52:44.386Z,50.92
2017-11-03T17:55:18.094Z,40.67
2017-11-03T17:57:51.683Z,89.40
2017-11-03T18:00:25.373Z,71.70
2017-11-03T18:02:59.910Z,39.83
2017-11-03T18:05:33.762Z,35.60
2017-11-03T18:08:07.331Z,29.48
2017-11-03T18:10:40.948Z,32.15
2017-11-03T18:13:14.629Z,28.90
2017-11-03T18:15:48.316Z,30.40
2017-11-03T18:18:22.080Z,22.87
2017-11-03T18:20:55.716Z,27.10
2017-11-03T18:23:29.396Z,20.05
2017-11-03T18:26:03.005Z,21.85
2017-11-03T18:28:36.768Z,23.05
2017-11-03T18:31:10.402Z,20.60
2017-11-03T18:33:44.055Z,23.00
2017-11-03T18:36:17.692Z,20.00
2017-11-03T18:38:51.323Z,21.62
2017-11-03T18:41:25.001Z,22.17
2017-11-03T18:43:58.530Z,29.27
2017-11-03T18:46:32.073Z,26.37
2017-11-03T18:49:05.814Z,29.98
2017-11-03T18:51:39.474Z,57.22
2017-11-03T18:54:13.101Z,87.75
2017-11-03T18:56:46.646Z,156.12
2017-11-03T18:59:20.205Z,104.03
2017-11-03T19:01:53.800Z,87.88
2017-11-03T19:04:27.601Z,93.57
2017-11-03T19:07:01.238Z,66.82
2017-11-03T19:09:35.038Z,48.58
2017-11-03T19:12:08.644Z,52.20
2017-11-03T19:14:43.086Z,48.03
2017-11-03T19:17:16.738Z,55.55
2017-11-03T19:19:50.302Z,40.55
2017-11-03T19:22:23.895Z,33.88
2017-11-03T19:24:57.465Z,28.30
2017-11-03T19:27:31.133Z,25.20
2017-11-03T19:30:04.720Z,24.67
2017-11-03T19:32:38.367Z,21.87
2017-11-03T19:35:11.977Z,32.72
2017-11-03T19:37:45.629Z,63.28
2017-11-03T19:40:19.394Z,51.10
2017-11-03T19:42:53.187Z,106.07
2017-11-03T19:45:26.820Z,80.55
2017-11-03T19:48:01.186Z,49.85
2017-11-03T19:50:34.755Z,40.28
2017-11-03T19:53:08.415Z,36.85
2017-11-03T19:55:42.885Z,32.88
2017-11-03T19:58:16.537Z,35.88
2017-11-03T20:00:50.372Z,27.75
2017-11-03T20:03:23.984Z,27.02
2017-11-03T20:05:57.579Z,25.35
2017-11-03T20:08:31.921Z,29.40
2017-11-03T20:11:05.560Z,35.38
2017-11-03T20:13:39.264Z,48.20
2017-11-03T20:16:12.869Z,87.75
2017-11-03T20:18:46.490Z,130.65
2017-11-03T20:21:20.845Z,87.70
2017-11-03T20:23:56.033Z,153.12
2017-11-03T20:26:29.760Z,316.15
2017-11-03T20:29:03.377Z,234.32
2017-11-03T20:31:36.950Z,215.85
2017-11-03T20:34:10.560Z,145.20
2017-11-03T20:36:44.152Z,308.73
2017-11-03T20:39:18.546Z,338.92
2017-11-03T20:41:53.883Z,198.70
2017-11-03T20:44:27.494Z,270.37
2017-11-03T20:47:01.062Z,166.23
2017-11-03T20:49:34.676Z,138.20
2017-11-03T20:52:08.360Z,235.15
2017-11-03T20:54:41.961Z,101.12
2017-11-03T20:57:15.555Z,116.53
2017-11-03T20:59:49.319Z,101.40
2017-11-03T21:02:23.867Z,115.82
2017-11-03T21:04:57.413Z,92.82
2017-11-03T21:07:31.170Z,56.37
2017-11-03T21:10:05.581Z,58.58
2017-11-03T21:12:39.167Z,35.30
2017-11-03T21:15:12.851Z,59.45
2017-11-03T21:17:46.502Z,79.47
2017-11-03T21:20:20.837Z,55.85
2017-11-03T21:22:55.364Z,65.50
2017-11-03T21:25:29.075Z,42.92
2017-11-03T21:28:02.768Z,62.97
2017-11-03T21:30:36.393Z,48.58
2017-11-03T21:33:10.116Z,125.38
2017-11-03T21:35:43.781Z,41.40
2017-11-03T21:38:17.482Z,29.42
2017-11-03T21:40:51.112Z,66.80
2017-11-03T21:43:25.543Z,112.60
2017-11-03T21:45:59.297Z,96.68
2017-11-03T21:48:32.937Z,65.12
2017-11-03T21:51:07.340Z,91.65
2017-11-03T21:53:40.989Z,73.65
2017-11-03T21:56:14.623Z,130.32
2017-11-03T21:58:48.203Z,50.70
2017-11-03T22:01:21.797Z,108.53
2017-11-03T22:03:56.098Z,79.25
2017-11-03T22:06:29.724Z,68.62
2017-11-03T22:09:04.200Z,58.65
2017-11-03T22:11:37.911Z,58.58
2017-11-03T22:14:12.343Z,127.78
2017-11-03T22:16:46.081Z,56.90
2017-11-03T22:19:19.667Z,49.70
2017-11-03T22:21:53.260Z,34.20
2017-11-03T22:24:26.962Z,39.70
2017-11-03T22:27:00.598Z,43.63
2017-11-03T22:29:35.064Z,122.37
2017-11-03T22:32:08.691Z,53.78
2017-11-03T22:34:42.287Z,64.45
2017-11-03T22:37:15.838Z,30.98
2017-11-03T22:39:49.511Z,20.80
2017-11-03T22:42:23.083Z,33.25
2017-11-03T22:44:56.572Z,37.28
2017-11-03T22:47:30.160Z,19.73
2017-11-03T22:50:03.751Z,46.85
2017-11-03T22:52:37.443Z,55.47
2017-11-03T22:55:11.255Z,61.47
2017-11-03T22:57:44.860Z,31.10
2017-11-03T23:00:19.302Z,121.68
2017-11-03T23:02:52.926Z,48.65
2017-11-03T23:05:26.732Z,97.70
2017-11-03T23:08:00.313Z,53.45
2017-11-03T23:10:33.923Z,105.28
2017-11-03T23:13:07.498Z,57.22
2017-11-03T23:15:41.811Z,81.53
2017-11-03T23:18:15.624Z,61.10
2017-11-03T23:20:49.333Z,99.40
2017-11-03T23:23:22.994Z,179.60
2017-11-03T23:25:56.663Z,80.22
2017-11-03T23:28:30.303Z,73.43
2017-11-03T23:31:03.882Z,40.17
2017-11-03T23:33:37.454Z,70.45
2017-11-03T23:36:11.851Z,50.85
2017-11-03T23:38:45.363Z,55.47
2017-11-03T23:41:18.898Z,108.78
2017-11-03T23:43:52.518Z,78.47
2017-11-03T23:46:26.161Z,102.35
2017-11-03T23:48:59.725Z,147.02
2017-11-03T23:51:33.437Z,55.47
2017-11-03T23:54:06.994Z,90.28
2017-11-03T23:56:40.547Z,56.80
2017-11-03T23:59:14.291Z,66.72
